Monday, October 16, 2017, 8:33 PM EDT
Back to Local

KAVP, Wilkes-barre/scranton International

Location: Pittston, PA, United States Lat: 41.333
Local Time: 8:33 PM EDT ( 0:33 GMT) Lon: -75.733
Time Zone: US/Eastern Elev: 961 ft

Show me the last for .
Show Decoded

2017-10-16 19:54 METAR KAVP 162354Z 36010KT 10SM BKN055 08/02 A3019 RMK AO2 SLP226 T00830017
                 10128 20083 53022 =
2017-10-16 18:54 METAR KAVP 162254Z 35008KT 10SM FEW048 09/01 A3016 RMK AO2 SLP212 T00940011 =
2017-10-16 17:54 METAR KAVP 162154Z 35008KT 10SM FEW055 11/00 A3013 RMK AO2 SLP204 T01110000 =
2017-10-16 16:54 METAR KAVP 162054Z 32009KT 10SM FEW055 11/00 A3013 RMK AO2 SLP201 T01110000
                 53005 =
2017-10-16 15:54 METAR KAVP 161954Z 30014KT 10SM FEW045 12/M01 A3012 RMK AO2 WSHFT 1849 SLP198
                 T01171006 =
2017-10-16 15:09 METAR KAVP 161909Z 34014G20KT 10SM SCT039 13/02 A3010 =
2017-10-16 14:54 METAR KAVP 161854Z 31013G18KT 10SM BKN040 12/03 A3011 RMK AO2 SLP193 T01170033 =
2017-10-16 13:54 METAR KAVP 161754Z 32012G17KT 10SM OVC034 11/03 A3011 RMK AO2 SLP194 T01060033
                 10106 20094 51005 =
2017-10-16 13:25 METAR KAVP 161725Z 34013G21KT 10SM OVC030 10/03 A3010 RMK AO2 T01000033 =
2017-10-16 12:54 METAR KAVP 161654Z 35016G23KT 10SM OVC028 10/03 A3010 RMK AO2 SLP192 T01000033 =
2017-10-16 11:54 METAR KAVP 161554Z 33012G17KT 10SM OVC028 10/04 A3011 RMK AO2 SLP194 T01000039 =
2017-10-16 10:54 METAR KAVP 161454Z 35012KT 10SM OVC027 09/04 A3010 RMK AO2 SLP189 T00940039
                 51007 =
2017-10-16 10:01 METAR KAVP 161401Z 32012G16KT 10SM OVC029 09/03 A3009 =
2017-10-16 09:54 METAR KAVP 161354Z 35007KT 10SM OVC030 10/03 A3009 RMK AO2 SLP186 T01000033 =
2017-10-16 09:50 METAR KAVP 161350Z 36008G20KT 10SM OVC030 10/03 A3009 RMK AO2 =
2017-10-16 09:13 METAR KAVP 161313Z 34010G16KT 10SM BKN029 OVC037 09/04 A3008 RMK AO2 T00940039 =
2017-10-16 08:54 METAR KAVP 161254Z 33012KT 10SM FEW027 OVC038 09/04 A3008 RMK AO2 SLP182
                 T00940039 =
2017-10-16 07:54 METAR KAVP 161154Z 36009G16KT 10SM SCT024 OVC032 09/04 A3004 RMK AO2 SLP169
                 70021 T00940044 10167 20094 51020 =
2017-10-16 06:54 METAR KAVP 161054Z 35006G14KT 10SM OVC024 10/06 A3002 RMK AO2 SLP161 T01000061 =
2017-10-16 05:54 METAR KAVP 160954Z 36007G20KT 10SM BKN023 OVC031 11/07 A2998 RMK AO2 SLP149
                 T01060067 =
2017-10-16 05:52 METAR KAVP 160952Z 36008G20KT 10SM BKN023 OVC033 11/07 A2998 RMK AO2 =
2017-10-16 04:54 METAR KAVP 160854Z 34010G19KT 10SM OVC030 13/07 A2995 RMK AO2 SLP136 T01280067
                 51019 =
2017-10-16 03:54 METAR KAVP 160754Z 32012G19KT 10SM FEW039 OVC055 14/08 A2993 RMK AO2 PK WND
                 35026/0741 SLP129 T01390078 =
2017-10-16 02:54 METAR KAVP 160654Z 32010KT 10SM FEW055 16/11 A2991 RMK AO2 SLP121 T01560111 =
2017-10-16 01:54 METAR KAVP 160554Z 28006KT 10SM FEW029 SCT085 OVC110 17/14 A2989 RMK AO2
                 RAE0459B21E48 SLP114 P0000 60021 T01670139 10206 20161 52013 =
2017-10-16 00:54 METAR KAVP 160454Z 31008KT 10SM -RA SCT029 BKN085 OVC110 17/14 A2988 RMK AO2
                 RAE14B32 SLP111 P0001 T01670139 402280156 =
2017-10-15 23:54 METAR KAVP 160354Z 30006KT 10SM -RA FEW070 OVC090 18/17 A2986 RMK AO2 RAB0258
                 SLP105 P0001 T01830167 =
2017-10-15 23:03 METAR KAVP 160303Z 28005KT 9SM -RA SCT012 BKN030 OVC070 18/17 A2986 RMK AO2
                 RAB0258 P0000 T01830172 =
2017-10-15 22:54 METAR KAVP 160254Z 27007KT 10SM BKN012 BKN029 OVC040 18/17 A2985 RMK AO2
                 RAB13E50 SLP102 P0019 60019 T01830172 53019 =
2017-10-15 22:29 METAR KAVP 160229Z 27010G20KT 3SM -RA BR FEW021 BKN026 OVC075 18/17 A2984 RMK
                 AO2 RAB13 P0019 T01830172 =
2017-10-15 22:24 METAR KAVP 160224Z 26012G20KT 1 1/2SM R04/5000VP6000FT +RA BR FEW018 BKN026
                 OVC065 18/17 A2984 RMK AO2 RAB13 P0014 T01830172 =
2017-10-15 22:16 METAR KAVP 160216Z 29014G21KT 2 1/2SM R04/5000VP6000FT +RA BR SCT019 BKN027
                 OVC065 19/17 A2983 RMK AO2 RAB13 PRESRR P0000 T01940172 =
2017-10-15 21:54 METAR KAVP 160154Z 24003KT 9SM FEW023 BKN065 OVC085 21/17 A2978 RMK AO2 SLP079
                 T02060172 =
2017-10-15 20:54 METAR KAVP 160054Z 22006KT 9SM FEW085 19/17 A2979 RMK AO2 SLP081 T01940167 =

Support USWX by starting your Amazon purchase here.